createdAt,value
2022-12-24T00:00:57.509Z,96.30
2022-12-24T00:03:24.330Z,96.40
2022-12-24T00:05:51.085Z,96.40
2022-12-24T00:08:17.646Z,96.30
2022-12-24T00:10:44.457Z,96.30
2022-12-24T00:13:10.983Z,96.60
2022-12-24T00:15:37.525Z,96.40
2022-12-24T00:18:04.043Z,96.80
2022-12-24T00:20:30.591Z,95.90
2022-12-24T00:22:57.114Z,95.50
2022-12-24T00:25:23.636Z,95.80
2022-12-24T00:27:50.180Z,95.50
2022-12-24T00:30:16.918Z,95.80
2022-12-24T00:32:43.529Z,95.50
2022-12-24T00:35:10.112Z,94.60
2022-12-24T00:37:36.653Z,94.30
2022-12-24T00:40:03.657Z,94.50
2022-12-24T00:42:30.223Z,94.10
2022-12-24T00:44:56.752Z,93.40
2022-12-24T00:47:23.278Z,93.00
2022-12-24T00:49:49.787Z,92.80
2022-12-24T00:52:16.337Z,92.60
2022-12-24T00:54:42.882Z,92.40
2022-12-24T00:57:09.502Z,92.00
2022-12-24T00:59:36.041Z,91.10
2022-12-24T01:02:02.609Z,90.50
2022-12-24T01:04:47.734Z,90.60
2022-12-24T01:07:14.300Z,90.90
2022-12-24T01:09:40.903Z,89.60
2022-12-24T01:12:07.465Z,86.50
2022-12-24T01:14:33.994Z,86.50
2022-12-24T01:17:00.500Z,86.50
2022-12-24T01:19:27.038Z,86.50
2022-12-24T01:21:53.711Z,86.50
2022-12-24T01:24:20.323Z,86.50
2022-12-24T01:26:46.880Z,87.80
2022-12-24T01:29:13.392Z,87.80
2022-12-24T01:31:40.073Z,88.30
2022-12-24T01:34:06.636Z,88.50
2022-12-24T01:36:33.585Z,86.30
2022-12-24T01:39:00.130Z,87.00
2022-12-24T01:41:45.805Z,86.20
2022-12-24T01:44:29.865Z,85.60
2022-12-24T01:50:37.175Z,85.00
2022-12-24T01:53:05.415Z,86.00
2022-12-24T01:55:32.075Z,84.40
2022-12-24T01:57:59.587Z,86.10
2022-12-24T02:00:26.155Z,86.00
2022-12-24T02:02:53.464Z,86.10
2022-12-24T02:05:39.211Z,86.50
2022-12-24T02:08:06.075Z,87.90
2022-12-24T02:10:32.672Z,89.10
2022-12-24T02:12:59.420Z,90.30
2022-12-24T02:15:27.809Z,90.20
2022-12-24T02:17:59.588Z,89.50
2022-12-24T02:20:26.098Z,87.40
2022-12-24T02:22:52.662Z,88.70
2022-12-24T02:25:20.251Z,87.40
2022-12-24T02:27:46.843Z,87.90
2022-12-24T02:30:13.590Z,88.00
2022-12-24T02:32:56.742Z,88.00
2022-12-24T02:35:29.121Z,88.60
2022-12-24T02:38:01.194Z,89.90
2022-12-24T02:40:29.611Z,89.90
2022-12-24T02:43:01.617Z,90.40
2022-12-24T02:45:29.587Z,89.90
2022-12-24T02:47:56.683Z,90.00
2022-12-24T02:50:23.615Z,89.30
2022-12-24T02:52:50.323Z,89.90
2022-12-24T02:55:19.369Z,90.40
2022-12-24T02:58:04.761Z,90.80
2022-12-24T03:00:40.293Z,90.70
2022-12-24T03:03:07.508Z,91.70
2022-12-24T03:05:42.191Z,91.70
2022-12-24T03:08:36.088Z,91.90
2022-12-24T03:11:06.244Z,92.10
2022-12-24T03:13:32.924Z,92.70
2022-12-24T03:16:00.098Z,92.90
2022-12-24T03:18:27.731Z,93.40
2022-12-24T03:21:06.573Z,93.70
2022-12-24T03:23:33.652Z,94.50
2022-12-24T03:26:01.329Z,95.00
2022-12-24T03:28:28.576Z,95.40
2022-12-24T03:30:55.865Z,95.60
2022-12-24T03:33:22.450Z,96.40
2022-12-24T03:35:49.001Z,96.90
2022-12-24T03:38:15.549Z,97.10
2022-12-24T03:40:42.181Z,97.10
2022-12-24T03:43:08.719Z,97.10
2022-12-24T03:45:35.373Z,97.30
2022-12-24T03:48:01.990Z,97.50
2022-12-24T03:50:28.591Z,97.70
2022-12-24T03:52:55.661Z,97.80
2022-12-24T03:55:22.398Z,98.00
2022-12-24T03:57:49.037Z,97.80
2022-12-24T04:00:16.071Z,97.70
2022-12-24T04:02:42.773Z,97.60
2022-12-24T04:05:13.248Z,97.50
2022-12-24T04:07:39.804Z,97.00
2022-12-24T04:10:06.598Z,97.00
2022-12-24T04:12:33.118Z,97.00
2022-12-24T04:14:59.704Z,95.90
2022-12-24T04:17:26.274Z,95.30
2022-12-24T04:19:52.867Z,95.30
2022-12-24T04:22:19.449Z,94.70
2022-12-24T04:24:46.073Z,93.50
2022-12-24T04:27:16.201Z,92.50
2022-12-24T04:29:42.780Z,92.10
2022-12-24T04:32:10.190Z,91.80
2022-12-24T04:34:37.214Z,91.80
2022-12-24T04:37:03.954Z,91.80
2022-12-24T04:39:30.500Z,91.70
2022-12-24T04:41:57.080Z,91.50
2022-12-24T04:44:23.641Z,91.80
2022-12-24T04:46:50.180Z,91.80
2022-12-24T04:49:16.737Z,91.80
2022-12-24T04:51:43.303Z,92.20
2022-12-24T04:54:09.881Z,92.10
2022-12-24T04:56:37.071Z,92.80
2022-12-24T04:59:03.667Z,92.90
2022-12-24T05:01:31.894Z,93.10
2022-12-24T05:03:59.026Z,93.20
2022-12-24T05:06:27.070Z,93.20
2022-12-24T05:08:54.614Z,93.50
2022-12-24T05:11:21.250Z,93.60
2022-12-24T05:13:48.233Z,94.20
2022-12-24T05:16:15.940Z,94.50
2022-12-24T05:18:42.689Z,95.10
2022-12-24T05:21:10.304Z,95.20
2022-12-24T05:23:55.778Z,95.20
2022-12-24T05:26:27.528Z,95.20
2022-12-24T05:28:55.297Z,95.30
2022-12-24T05:31:22.772Z,95.30
2022-12-24T05:33:49.414Z,95.80
2022-12-24T05:36:16.053Z,96.00
2022-12-24T05:38:42.748Z,96.20
2022-12-24T05:41:09.942Z,96.20
2022-12-24T05:43:37.266Z,96.40
2022-12-24T05:46:07.473Z,96.70
2022-12-24T05:48:34.217Z,96.90
2022-12-24T05:51:03.306Z,97.10
2022-12-24T05:53:29.873Z,97.30
2022-12-24T05:56:02.238Z,97.70
2022-12-24T05:58:28.844Z,97.80
2022-12-24T06:00:55.405Z,97.70
2022-12-24T06:03:22.368Z,97.80
2022-12-24T06:05:49.057Z,97.60
2022-12-24T06:08:15.640Z,97.80
2022-12-24T06:10:42.263Z,98.20
2022-12-24T06:13:08.867Z,98.00
2022-12-24T06:15:35.994Z,98.00
2022-12-24T06:18:02.613Z,97.80
2022-12-24T06:20:30.080Z,97.60
2022-12-24T06:22:56.654Z,97.30
2022-12-24T06:25:23.365Z,97.00
2022-12-24T06:27:49.925Z,96.50
2022-12-24T06:30:18.560Z,95.90
2022-12-24T06:32:45.403Z,96.10
2022-12-24T06:35:12.314Z,96.10
2022-12-24T06:37:38.923Z,96.00
2022-12-24T06:40:05.693Z,95.80
2022-12-24T06:42:32.280Z,95.80
2022-12-24T06:45:02.303Z,95.90
2022-12-24T06:47:34.329Z,96.00
2022-12-24T06:50:00.875Z,96.30
2022-12-24T06:52:27.683Z,96.10
2022-12-24T06:54:54.245Z,96.20
2022-12-24T06:57:20.933Z,96.40
2022-12-24T06:59:47.512Z,96.50
2022-12-24T07:02:14.271Z,96.50
2022-12-24T07:04:40.848Z,96.30
2022-12-24T07:07:07.508Z,96.80
2022-12-24T07:09:34.040Z,97.00
2022-12-24T07:12:00.658Z,97.00
2022-12-24T07:14:27.291Z,97.00
2022-12-24T07:16:58.684Z,97.30
2022-12-24T07:19:25.783Z,97.60
2022-12-24T07:21:52.338Z,97.60
2022-12-24T07:24:20.133Z,97.00
2022-12-24T07:26:47.008Z,97.30
2022-12-24T07:29:13.651Z,97.00
2022-12-24T07:31:40.267Z,97.00
2022-12-24T07:34:06.929Z,97.50
2022-12-24T07:36:33.495Z,97.60
2022-12-24T07:39:00.082Z,97.70
2022-12-24T07:41:26.610Z,97.80
2022-12-24T07:43:53.391Z,97.90
2022-12-24T07:46:20.036Z,97.20
2022-12-24T07:48:46.746Z,97.00
2022-12-24T07:51:13.311Z,97.50
2022-12-24T07:53:39.853Z,97.10
2022-12-24T07:56:12.437Z,97.10
2022-12-24T07:58:39.759Z,96.90
2022-12-24T08:01:06.544Z,96.80
2022-12-24T08:03:33.443Z,96.70
2022-12-24T08:06:00.123Z,95.80
2022-12-24T08:08:26.794Z,95.00
2022-12-24T08:10:53.476Z,95.10
2022-12-24T08:13:20.115Z,95.10
2022-12-24T08:15:46.762Z,95.10
2022-12-24T08:18:13.321Z,94.90
2022-12-24T08:20:40.512Z,95.10
2022-12-24T08:23:07.610Z,94.40
2022-12-24T08:25:34.694Z,94.60
2022-12-24T08:28:01.267Z,94.50
2022-12-24T08:30:27.957Z,94.10
2022-12-24T08:32:54.933Z,94.30
2022-12-24T08:35:21.584Z,94.30
2022-12-24T08:37:48.210Z,94.60
2022-12-24T08:40:15.357Z,95.10
2022-12-24T08:42:41.995Z,94.90
2022-12-24T08:45:10.067Z,95.10
2022-12-24T08:47:36.688Z,95.10
2022-12-24T08:50:04.186Z,95.10
2022-12-24T08:52:30.753Z,95.10
2022-12-24T08:54:57.336Z,95.10
2022-12-24T08:57:24.171Z,95.00
2022-12-24T08:59:50.750Z,94.70
2022-12-24T09:02:17.593Z,94.70
2022-12-24T09:04:44.268Z,94.30
2022-12-24T09:07:10.882Z,94.80
2022-12-24T09:09:38.260Z,94.60
2022-12-24T09:12:05.879Z,95.10
2022-12-24T09:14:32.526Z,94.50
2022-12-24T09:16:59.776Z,94.30
2022-12-24T09:19:27.236Z,93.80
2022-12-24T09:21:53.845Z,93.90
2022-12-24T09:24:20.404Z,94.20
2022-12-24T09:26:55.535Z,93.50
2022-12-24T09:29:24.067Z,93.50
2022-12-24T09:31:50.786Z,92.80
2022-12-24T09:34:17.437Z,91.80
2022-12-24T09:36:44.069Z,91.80
2022-12-24T09:39:10.633Z,91.80
2022-12-24T09:41:49.448Z,90.00
2022-12-24T09:44:36.279Z,87.80
2022-12-24T09:47:10.226Z,86.70
2022-12-24T09:49:43.790Z,84.70
2022-12-24T09:52:12.375Z,84.80
2022-12-24T09:54:47.709Z,82.40
2022-12-24T09:57:26.796Z,81.20
2022-12-24T09:59:53.714Z,80.30
2022-12-24T10:02:20.569Z,78.80
2022-12-24T10:04:48.552Z,78.50
2022-12-24T10:07:33.576Z,78.50
2022-12-24T10:10:13.427Z,78.50
2022-12-24T10:12:51.128Z,78.40
2022-12-24T10:15:23.244Z,77.30
2022-12-24T10:17:55.319Z,77.10
2022-12-24T10:20:33.688Z,76.30
2022-12-24T10:23:05.118Z,75.20
2022-12-24T10:25:57.933Z,75.50
2022-12-24T10:28:30.146Z,74.60
2022-12-24T10:30:59.438Z,72.30
2022-12-24T10:33:31.330Z,67.60
2022-12-24T10:35:58.430Z,66.80
2022-12-24T10:38:25.753Z,65.80
2022-12-24T10:40:55.123Z,62.40
2022-12-24T10:43:22.927Z,61.80
2022-12-24T10:45:57.347Z,57.30
2022-12-24T10:48:27.390Z,52.80
2022-12-24T10:51:04.622Z,52.90
2022-12-24T10:53:34.105Z,52.90
2022-12-24T10:56:02.178Z,53.00
2022-12-24T10:58:28.896Z,53.00
2022-12-24T11:00:55.593Z,51.00
2022-12-24T11:03:24.197Z,48.80
2022-12-24T11:06:22.286Z,48.00
2022-12-24T11:08:48.866Z,48.10
2022-12-24T11:11:20.223Z,46.40
2022-12-24T11:13:49.723Z,45.00
2022-12-24T11:16:23.354Z,49.00
2022-12-24T11:18:52.454Z,48.30
2022-12-24T11:21:20.947Z,45.10
2022-12-24T11:23:51.913Z,45.60
2022-12-24T11:26:21.575Z,42.20
2022-12-24T11:29:03.471Z,37.70
2022-12-24T11:31:32.844Z,32.40
2022-12-24T11:33:59.519Z,27.30
2022-12-24T11:36:27.611Z,25.60
2022-12-24T11:38:55.703Z,25.90
2022-12-24T11:41:23.026Z,23.40
2022-12-24T11:43:51.137Z,20.70
2022-12-24T11:46:19.270Z,19.10
2022-12-24T11:48:46.457Z,19.50
2022-12-24T11:51:23.627Z,20.30
2022-12-24T11:53:59.837Z,21.40
2022-12-24T11:56:46.467Z,21.90
2022-12-24T11:59:31.657Z,22.10
2022-12-24T12:02:17.086Z,21.70
2022-12-24T12:04:44.974Z,20.40
2022-12-24T12:07:15.597Z,21.10
2022-12-24T12:10:02.880Z,21.20
2022-12-24T12:12:31.944Z,21.80
2022-12-24T12:15:00.827Z,19.40
2022-12-24T12:17:40.037Z,14.90
2022-12-24T12:20:10.929Z,13.60
2022-12-24T12:22:45.511Z,12.90
2022-12-24T12:25:19.669Z,12.70
2022-12-24T12:27:47.810Z,12.60
2022-12-24T12:30:15.740Z,14.80
2022-12-24T12:32:49.209Z,14.50
2022-12-24T12:35:18.388Z,14.60
2022-12-24T12:37:47.658Z,14.60
2022-12-24T12:40:15.538Z,14.00
2022-12-24T12:42:48.134Z,14.50
2022-12-24T12:45:32.873Z,14.40
2022-12-24T12:48:01.151Z,14.30
2022-12-24T12:50:33.360Z,15.80
2022-12-24T12:53:02.734Z,16.60
2022-12-24T12:55:43.654Z,16.30
2022-12-24T12:58:33.632Z,16.80
2022-12-24T13:01:14.119Z,16.80
2022-12-24T13:03:59.732Z,18.40
2022-12-24T13:06:31.686Z,19.20
2022-12-24T13:09:16.779Z,19.30
2022-12-24T13:12:02.000Z,16.80
2022-12-24T13:14:35.627Z,14.40
2022-12-24T13:17:08.224Z,11.60
2022-12-24T13:19:43.766Z,11.10
2022-12-24T13:22:17.639Z,10.00
2022-12-24T13:24:52.346Z,8.00
2022-12-24T13:27:31.415Z,7.70
2022-12-24T13:30:06.935Z,7.60
2022-12-24T13:32:48.235Z,7.80
2022-12-24T13:35:20.833Z,8.30
2022-12-24T13:37:47.855Z,9.40
2022-12-24T13:40:17.241Z,11.00
2022-12-24T13:42:49.923Z,11.30
2022-12-24T13:45:29.100Z,13.60
2022-12-24T13:47:56.512Z,13.50
2022-12-24T13:50:34.789Z,14.60
2022-12-24T13:53:01.567Z,16.70
2022-12-24T13:55:28.589Z,18.60
2022-12-24T13:57:59.643Z,19.90
2022-12-24T14:00:29.138Z,20.10
2022-12-24T14:03:01.447Z,21.70
2022-12-24T14:05:36.749Z,22.20
2022-12-24T14:08:05.322Z,22.50
2022-12-24T14:10:36.149Z,22.80
2022-12-24T14:13:02.706Z,22.40
2022-12-24T14:15:44.470Z,22.50
2022-12-24T14:18:16.586Z,22.50
2022-12-24T14:20:43.504Z,22.40
2022-12-24T14:23:19.139Z,23.30
2022-12-24T14:25:45.798Z,24.10
2022-12-24T14:28:19.131Z,23.20
2022-12-24T14:30:45.733Z,23.90
2022-12-24T14:33:31.868Z,24.90
2022-12-24T14:35:58.926Z,26.10
2022-12-24T14:38:25.970Z,27.70
2022-12-24T14:41:11.185Z,28.10
2022-12-24T14:43:40.786Z,29.70
2022-12-24T14:46:12.383Z,30.50
2022-12-24T14:48:51.166Z,30.40
2022-12-24T14:51:50.185Z,31.60
2022-12-24T14:54:28.883Z,32.80
2022-12-24T14:57:10.671Z,34.90
2022-12-24T14:59:42.852Z,35.70
2022-12-24T15:02:28.227Z,38.30
2022-12-24T15:05:07.392Z,41.30
2022-12-24T15:07:34.362Z,40.90
2022-12-24T15:10:02.377Z,44.70
2022-12-24T15:12:31.748Z,46.90
2022-12-24T15:14:58.399Z,48.70
2022-12-24T15:17:25.879Z,51.30
2022-12-24T15:19:53.208Z,51.90
2022-12-24T15:22:27.802Z,53.70
2022-12-24T15:24:54.342Z,54.00
2022-12-24T15:27:23.120Z,55.70
2022-12-24T15:29:51.408Z,57.70
2022-12-24T15:32:18.945Z,58.80
2022-12-24T15:34:50.048Z,60.40
2022-12-24T15:37:19.239Z,61.00
2022-12-24T15:39:53.212Z,61.40
2022-12-24T15:42:22.381Z,63.30
2022-12-24T15:44:55.117Z,65.00
2022-12-24T15:47:24.186Z,66.50
2022-12-24T15:49:52.206Z,67.50
2022-12-24T15:52:20.673Z,68.70
2022-12-24T15:54:53.642Z,69.30
2022-12-24T15:57:32.270Z,71.90
2022-12-24T15:59:59.977Z,73.10
2022-12-24T16:02:37.763Z,73.10
2022-12-24T16:05:19.932Z,74.20
2022-12-24T16:08:08.323Z,74.90
2022-12-24T16:10:42.416Z,77.70
2022-12-24T16:13:11.734Z,78.20
2022-12-24T16:15:44.048Z,78.10
2022-12-24T16:18:18.265Z,80.00
2022-12-24T16:20:49.017Z,80.20
2022-12-24T16:23:26.692Z,80.40
2022-12-24T16:25:53.296Z,81.70
2022-12-24T16:28:22.987Z,82.50
2022-12-24T16:30:50.182Z,85.80
2022-12-24T16:33:18.096Z,86.00
2022-12-24T16:35:45.079Z,88.40
2022-12-24T16:38:13.434Z,89.70
2022-12-24T16:40:40.753Z,90.20
2022-12-24T16:43:26.360Z,90.30
2022-12-24T16:45:53.235Z,90.10
2022-12-24T16:48:24.017Z,90.00
2022-12-24T16:50:51.608Z,90.90
2022-12-24T16:53:19.227Z,91.50
2022-12-24T16:55:47.486Z,91.50
2022-12-24T16:58:15.518Z,91.50
2022-12-24T17:00:42.148Z,91.50
2022-12-24T17:03:08.870Z,91.50
2022-12-24T17:05:39.131Z,92.00
2022-12-24T17:08:06.268Z,92.10
2022-12-24T17:10:33.268Z,92.60
2022-12-24T17:12:59.946Z,93.20
2022-12-24T17:15:26.506Z,93.70
2022-12-24T17:17:53.058Z,93.80
2022-12-24T17:20:23.961Z,94.90
2022-12-24T17:22:51.002Z,95.90
2022-12-24T17:25:17.608Z,96.60
2022-12-24T17:27:44.174Z,97.40
2022-12-24T17:30:10.861Z,97.50
2022-12-24T17:32:37.638Z,97.30
2022-12-24T17:35:04.353Z,97.10
2022-12-24T17:37:30.954Z,97.30
2022-12-24T17:39:57.514Z,97.40
2022-12-24T17:42:24.120Z,97.50
2022-12-24T17:44:50.718Z,97.60
2022-12-24T17:47:17.413Z,97.70
2022-12-24T17:49:43.954Z,97.90
2022-12-24T17:52:11.404Z,98.30
2022-12-24T17:54:37.947Z,98.30
2022-12-24T17:57:04.495Z,98.30
2022-12-24T17:59:31.136Z,98.30
2022-12-24T18:01:57.835Z,98.40
2022-12-24T18:04:24.470Z,98.40
2022-12-24T18:06:53.867Z,98.40
2022-12-24T18:09:26.039Z,98.40
2022-12-24T18:11:52.670Z,98.40
2022-12-24T18:14:20.021Z,98.40
2022-12-24T18:16:47.781Z,98.40
2022-12-24T18:19:14.601Z,98.40
2022-12-24T18:21:41.336Z,98.40
2022-12-24T18:24:08.990Z,98.40
2022-12-24T18:26:35.681Z,98.40
2022-12-24T18:29:04.655Z,98.40
2022-12-24T18:31:33.416Z,98.40
2022-12-24T18:34:01.186Z,98.40
2022-12-24T18:36:27.802Z,98.40
2022-12-24T18:38:54.350Z,98.40
2022-12-24T18:41:22.472Z,98.40
2022-12-24T18:43:49.317Z,98.50
2022-12-24T18:46:17.933Z,98.40
2022-12-24T18:48:44.549Z,98.40
2022-12-24T18:51:11.321Z,98.40
2022-12-24T18:53:38.167Z,98.40
2022-12-24T18:56:10.524Z,98.40
2022-12-24T18:58:42.219Z,98.50
2022-12-24T19:01:10.251Z,98.40
2022-12-24T19:03:36.994Z,98.50
2022-12-24T19:06:03.630Z,98.40
2022-12-24T19:08:56.403Z,98.50
2022-12-24T19:11:16.843Z,99.90
2022-12-24T19:13:49.949Z,99.90
2022-12-24T19:16:17.104Z,93.20
2022-12-24T19:18:43.654Z,60.00
2022-12-24T19:21:11.312Z,73.00
2022-12-24T19:23:38.092Z,61.40
2022-12-24T19:26:05.691Z,55.10
2022-12-24T19:28:32.642Z,51.60
2022-12-24T19:31:03.726Z,50.50
2022-12-24T19:33:30.580Z,43.00
2022-12-24T19:35:57.189Z,44.60
2022-12-24T19:38:23.797Z,53.10
2022-12-24T19:40:50.367Z,61.50
2022-12-24T19:43:16.948Z,69.80
2022-12-24T19:45:43.517Z,76.10
2022-12-24T19:48:10.127Z,80.60
2022-12-24T19:50:36.664Z,84.70
2022-12-24T19:53:03.280Z,85.70
2022-12-24T19:55:29.892Z,87.70
2022-12-24T19:57:56.446Z,89.90
2022-12-24T20:00:23.043Z,90.70
2022-12-24T20:02:49.775Z,91.90
2022-12-24T20:05:16.503Z,92.20
2022-12-24T20:07:43.070Z,93.30
2022-12-24T20:10:09.801Z,93.80
2022-12-24T20:12:36.372Z,94.00
2022-12-24T20:15:03.040Z,94.00
2022-12-24T20:17:29.768Z,94.20
2022-12-24T20:19:56.386Z,94.80
2022-12-24T20:22:22.976Z,95.20
2022-12-24T20:24:49.606Z,95.20
2022-12-24T20:27:16.985Z,95.30
2022-12-24T20:29:43.545Z,95.20
2022-12-24T20:32:10.143Z,95.20
2022-12-24T20:34:36.868Z,95.30
2022-12-24T20:37:04.141Z,95.80
2022-12-24T20:39:30.741Z,95.50
2022-12-24T20:41:57.328Z,95.20
2022-12-24T20:44:23.901Z,95.80
2022-12-24T20:46:50.495Z,95.90
2022-12-24T20:49:17.142Z,96.10
2022-12-24T20:51:44.031Z,96.10
2022-12-24T20:54:11.111Z,96.40
2022-12-24T20:56:37.918Z,96.50
2022-12-24T20:59:04.527Z,96.50
2022-12-24T21:01:31.353Z,96.80
2022-12-24T21:04:00.185Z,96.90
2022-12-24T21:06:26.844Z,96.90
2022-12-24T21:08:54.145Z,96.90
2022-12-24T21:11:40.032Z,96.90
2022-12-24T21:14:06.835Z,96.90
2022-12-24T21:16:34.412Z,97.10
2022-12-24T21:19:01.083Z,97.10
2022-12-24T21:21:27.635Z,97.30
2022-12-24T21:23:54.333Z,97.60
2022-12-24T21:26:20.893Z,97.50
2022-12-24T21:28:47.476Z,97.70
2022-12-24T21:31:14.612Z,97.80
2022-12-24T21:33:41.668Z,97.90
2022-12-24T21:36:08.431Z,98.00
2022-12-24T21:38:35.207Z,98.20
2022-12-24T21:41:03.516Z,98.50
2022-12-24T21:43:30.658Z,98.50
2022-12-24T21:45:57.844Z,98.60
2022-12-24T21:48:44.074Z,98.50
2022-12-24T21:51:10.819Z,98.50
2022-12-24T21:53:55.928Z,98.60
2022-12-24T21:56:22.619Z,98.30
2022-12-24T21:58:50.156Z,98.50
2022-12-24T22:01:17.087Z,98.50
2022-12-24T22:03:44.372Z,98.50
2022-12-24T22:06:31.431Z,98.50
2022-12-24T22:09:16.837Z,98.60
2022-12-24T22:11:54.387Z,98.60
2022-12-24T22:14:21.577Z,99.00
2022-12-24T22:16:48.294Z,99.10
2022-12-24T22:19:14.963Z,99.00
2022-12-24T22:21:41.521Z,98.50
2022-12-24T22:24:08.283Z,98.50
2022-12-24T22:26:34.864Z,98.50
2022-12-24T22:29:03.805Z,98.50
2022-12-24T22:31:32.556Z,98.50
2022-12-24T22:33:59.619Z,98.50
2022-12-24T22:36:26.313Z,98.60
2022-12-24T22:38:52.921Z,98.70
2022-12-24T22:41:19.474Z,99.00
2022-12-24T22:43:46.183Z,99.40
2022-12-24T22:46:13.533Z,99.30
2022-12-24T22:48:40.960Z,99.50
2022-12-24T22:51:12.341Z,99.60
2022-12-24T22:53:39.095Z,99.70
2022-12-24T22:56:06.444Z,99.70
2022-12-24T22:58:33.521Z,99.90
2022-12-24T23:01:00.320Z,99.60
2022-12-24T23:03:28.107Z,99.90
2022-12-24T23:05:55.702Z,99.90
2022-12-24T23:08:22.289Z,99.90
2022-12-24T23:10:48.838Z,99.90
2022-12-24T23:13:34.307Z,99.90
2022-12-24T23:16:01.928Z,99.90
2022-12-24T23:18:28.510Z,99.90
2022-12-24T23:20:55.047Z,99.90
2022-12-24T23:23:21.603Z,99.90
2022-12-24T23:25:48.161Z,99.90
2022-12-24T23:28:14.695Z,99.90
2022-12-24T23:30:41.322Z,99.90
2022-12-24T23:33:07.880Z,99.90
2022-12-24T23:35:34.460Z,99.90
2022-12-24T23:38:01.018Z,99.90
2022-12-24T23:40:27.576Z,99.90
2022-12-24T23:42:54.311Z,99.90
2022-12-24T23:45:20.900Z,99.90
2022-12-24T23:47:47.450Z,99.90
2022-12-24T23:50:13.994Z,99.90
2022-12-24T23:52:41.447Z,99.90
2022-12-24T23:55:08.121Z,99.90
2022-12-24T23:57:34.724Z,99.90
